createdAt,value
2023-05-19T00:00:35.091Z,958.3116
2023-05-19T00:01:35.171Z,958.3100
2023-05-19T00:02:36.423Z,958.3075
2023-05-19T00:03:37.877Z,958.3138
2023-05-19T00:04:39.954Z,958.3134
2023-05-19T00:05:41.831Z,958.3200
2023-05-19T00:06:43.072Z,958.3171
2023-05-19T00:07:44.575Z,958.3192
2023-05-19T00:08:45.840Z,958.3150
2023-05-19T00:09:47.632Z,958.3104
2023-05-19T00:10:49.751Z,958.2996
2023-05-19T00:11:51.456Z,958.2889
2023-05-19T00:12:53.869Z,958.2881
2023-05-19T00:13:53.142Z,958.2809
2023-05-19T00:14:53.672Z,958.2784
2023-05-19T00:15:55.637Z,958.2708
2023-05-19T00:16:57.303Z,958.2646
2023-05-19T00:17:58.310Z,958.2592
2023-05-19T00:18:59.318Z,958.2408
2023-05-19T00:22:02.910Z,958.2112
2023-05-19T00:23:03.955Z,958.1946
2023-05-19T00:24:06.690Z,958.1837
2023-05-19T00:25:08.371Z,958.1772
2023-05-19T00:26:09.995Z,958.1537
2023-05-19T00:27:10.861Z,958.1500
2023-05-19T00:28:12.647Z,958.1421
2023-05-19T00:29:14.263Z,958.1421
2023-05-19T00:30:16.181Z,958.1387
2023-05-19T00:31:16.431Z,958.1357
2023-05-19T00:32:18.382Z,958.1375
2023-05-19T00:35:21.785Z,958.1279
2023-05-19T00:36:22.808Z,958.1234
2023-05-19T00:37:23.870Z,958.1116
2023-05-19T00:38:25.762Z,958.1031
2023-05-19T00:39:27.444Z,958.1008
2023-05-19T00:40:28.560Z,958.0842
2023-05-19T00:41:30.535Z,958.0787
2023-05-19T00:42:30.814Z,958.0630
2023-05-19T00:43:31.697Z,958.0496
2023-05-19T00:44:32.412Z,958.0348
2023-05-19T00:45:34.263Z,958.0237
2023-05-19T00:47:42.680Z,958.0154
2023-05-19T00:49:05.549Z,958.0125
2023-05-19T00:50:06.970Z,958.0068
2023-05-19T00:51:08.887Z,957.9962
2023-05-19T00:52:09.924Z,957.9946
2023-05-19T00:54:12.461Z,957.9791
2023-05-19T00:55:13.397Z,957.9616
2023-05-19T00:56:15.184Z,957.9534
2023-05-19T00:57:16.527Z,957.9425
2023-05-19T00:58:17.850Z,957.9366
2023-05-19T00:59:19.209Z,957.9225
2023-05-19T01:00:21.465Z,957.9083
2023-05-19T01:06:27.875Z,957.8854
2023-05-19T01:07:28.094Z,957.8774
2023-05-19T01:08:29.212Z,957.8796
2023-05-19T01:09:31.721Z,957.8622
2023-05-19T01:10:34.203Z,957.8588
2023-05-19T01:12:35.853Z,957.8554
2023-05-19T01:13:38.651Z,957.8650
2023-05-19T01:14:38.562Z,957.8650
2023-05-19T01:15:39.377Z,957.8588
2023-05-19T01:16:40.211Z,957.8646
2023-05-19T01:17:41.382Z,957.8584
2023-05-19T01:18:42.525Z,957.8573
2023-05-19T01:19:44.183Z,957.8533
2023-05-19T01:20:45.770Z,957.8529
2023-05-19T01:21:46.733Z,957.8568
2023-05-19T01:22:47.509Z,957.8657
2023-05-19T01:23:48.675Z,957.8766
2023-05-19T01:25:50.895Z,957.8967
2023-05-19T01:26:52.477Z,957.9050
2023-05-19T01:27:53.661Z,957.8992
2023-05-19T01:28:55.883Z,957.9017
2023-05-19T01:29:57.876Z,957.9008
2023-05-19T01:30:59.793Z,957.8929
2023-05-19T01:31:59.849Z,957.8953
2023-05-19T01:33:01.625Z,957.9077
2023-05-19T01:35:01.220Z,957.9196
2023-05-19T01:36:02.256Z,957.9279
2023-05-19T01:37:03.386Z,957.9241
2023-05-19T01:38:05.549Z,957.9058
2023-05-19T01:39:06.231Z,957.9130
2023-05-19T01:41:07.313Z,957.9108
2023-05-19T01:42:08.127Z,957.9008
2023-05-19T01:44:10.769Z,957.8959
2023-05-19T01:45:12.581Z,957.8956
2023-05-19T01:49:15.993Z,957.8965
2023-05-19T01:50:16.717Z,957.8854
2023-05-19T01:51:17.193Z,957.8852
2023-05-19T01:52:19.097Z,957.8842
2023-05-19T01:53:20.990Z,957.9046
2023-05-19T01:54:22.290Z,957.9133
2023-05-19T01:55:24.317Z,957.9171
2023-05-19T01:56:26.600Z,957.9275
2023-05-19T01:57:27.569Z,957.9221
2023-05-19T01:58:28.863Z,957.9191
2023-05-19T01:59:31.727Z,957.9188
2023-05-19T02:01:32.386Z,957.9247
2023-05-19T02:02:32.576Z,957.9312
2023-05-19T02:03:33.204Z,957.9412
2023-05-19T02:04:35.766Z,957.9404
2023-05-19T02:05:36.872Z,957.9380
2023-05-19T02:06:37.694Z,957.9341
2023-05-19T02:09:42.783Z,957.9216
2023-05-19T02:10:43.354Z,957.9176
2023-05-19T02:11:44.542Z,957.9083
2023-05-19T02:12:44.658Z,957.9017
2023-05-19T02:13:45.626Z,957.8996
2023-05-19T02:14:46.654Z,957.8921
2023-05-19T02:15:47.727Z,957.8879
2023-05-19T02:16:48.925Z,957.8912
2023-05-19T02:17:51.008Z,957.8892
2023-05-19T02:23:55.271Z,957.8683
2023-05-19T02:24:56.437Z,957.8629
2023-05-19T02:26:59.912Z,957.8359
2023-05-19T02:28:01.674Z,957.8270
2023-05-19T02:29:03.281Z,957.8200
2023-05-19T02:30:04.518Z,957.8038
2023-05-19T02:31:07.173Z,957.7775
2023-05-19T02:33:07.684Z,957.7466
2023-05-19T02:34:08.445Z,957.7340
2023-05-19T02:35:09.742Z,957.7412
2023-05-19T02:36:11.296Z,957.7200
2023-05-19T02:37:13.191Z,957.7137
2023-05-19T02:38:14.837Z,957.7083
2023-05-19T02:39:16.690Z,957.6904
2023-05-19T02:40:18.137Z,957.6884
2023-05-19T02:41:20.270Z,957.6696
2023-05-19T02:43:21.657Z,957.6542
2023-05-19T02:44:22.445Z,957.6462
2023-05-19T02:45:24.037Z,957.6467
2023-05-19T02:46:25.817Z,957.6459
2023-05-19T02:47:27.615Z,957.6396
2023-05-19T02:48:29.284Z,957.6409
2023-05-19T02:49:30.598Z,957.6250
2023-05-19T03:02:34.978Z,957.6562
2023-05-19T03:05:38.129Z,957.6468
2023-05-19T03:07:39.296Z,957.6229
2023-05-19T03:08:42.335Z,957.6058
2023-05-19T03:09:41.536Z,957.5995
2023-05-19T03:10:42.315Z,957.6011
2023-05-19T03:11:44.855Z,957.5812
2023-05-19T03:12:46.002Z,957.5771
2023-05-19T03:13:46.504Z,957.5720
2023-05-19T03:14:46.772Z,957.5709
2023-05-19T03:15:48.899Z,957.5685
2023-05-19T03:16:50.399Z,957.5704
2023-05-19T03:17:51.448Z,957.5742
2023-05-19T03:19:52.826Z,957.5604
2023-05-19T03:20:53.862Z,957.5560
2023-05-19T03:22:57.098Z,957.5563
2023-05-19T03:23:57.908Z,957.5566
2023-05-19T03:24:59.343Z,957.5513
2023-05-19T03:26:02.232Z,957.5492
2023-05-19T03:33:06.938Z,957.5336
2023-05-19T03:34:08.348Z,957.5305
2023-05-19T03:35:09.149Z,957.5329
2023-05-19T03:36:10.110Z,957.5413
2023-05-19T03:37:12.276Z,957.5466
2023-05-19T03:38:14.146Z,957.5596
2023-05-19T03:42:47.299Z,957.6208
2023-05-19T03:43:48.368Z,957.6567
2023-05-19T03:46:52.708Z,957.7100
2023-05-19T03:47:54.517Z,957.7146
2023-05-19T03:48:54.962Z,957.7364
2023-05-19T03:49:56.172Z,957.7450
2023-05-19T03:50:57.394Z,957.7429
2023-05-19T03:51:59.433Z,957.7430
2023-05-19T03:53:00.289Z,957.7220
2023-05-19T03:54:01.343Z,957.7171
2023-05-19T03:55:02.594Z,957.7071
2023-05-19T03:56:04.279Z,957.7122
2023-05-19T03:57:06.115Z,957.7065
2023-05-19T03:58:07.315Z,957.6987
2023-05-19T03:59:08.395Z,957.7179
2023-05-19T04:00:09.703Z,957.7183
2023-05-19T04:01:10.849Z,957.7108
2023-05-19T04:02:12.832Z,957.7152
2023-05-19T04:03:14.338Z,957.7079
2023-05-19T04:04:15.833Z,957.7046
2023-05-19T04:05:17.260Z,957.7054
2023-05-19T04:06:19.008Z,957.7150
2023-05-19T04:07:20.467Z,957.7300
2023-05-19T04:08:23.506Z,957.7366
2023-05-19T04:11:25.471Z,957.7621
2023-05-19T04:12:27.001Z,957.7600
2023-05-19T04:13:28.039Z,957.7596
2023-05-19T04:15:31.341Z,957.7579
2023-05-19T04:16:32.295Z,957.7664
2023-05-19T04:18:32.839Z,957.7516
2023-05-19T04:19:34.619Z,957.7550
2023-05-19T04:21:34.972Z,957.7746
2023-05-19T04:22:36.115Z,957.7913
2023-05-19T04:24:37.959Z,957.8154
2023-05-19T04:25:38.497Z,957.8234
2023-05-19T04:26:39.668Z,957.8304
2023-05-19T04:27:41.195Z,957.8325
2023-05-19T04:28:43.528Z,957.8383
2023-05-19T04:30:44.288Z,957.8474
2023-05-19T04:31:44.639Z,957.8335
2023-05-19T04:33:45.536Z,957.8204
2023-05-19T04:34:47.321Z,957.8217
2023-05-19T04:39:53.649Z,957.8804
2023-05-19T04:40:55.523Z,957.8954
2023-05-19T04:41:58.030Z,957.9083
2023-05-19T04:42:58.672Z,957.9192
2023-05-19T04:44:00.925Z,957.9337
2023-05-19T04:45:01.727Z,957.9512
2023-05-19T04:46:02.754Z,957.9562
2023-05-19T04:48:05.513Z,957.9717
2023-05-19T04:49:07.817Z,957.9838
2023-05-19T04:51:07.668Z,957.9829
2023-05-19T04:52:08.891Z,957.9921
2023-05-19T04:53:10.475Z,957.9908
2023-05-19T04:54:11.835Z,958.0096
2023-05-19T04:55:12.974Z,958.0262
2023-05-19T04:56:15.038Z,958.0311
2023-05-19T04:57:17.221Z,958.0383
2023-05-19T04:58:19.104Z,958.0379
2023-05-19T04:59:20.205Z,958.0450
2023-05-19T05:00:23.237Z,958.0555
2023-05-19T05:02:23.980Z,958.0800
2023-05-19T05:03:25.597Z,958.0675
2023-05-19T05:04:26.608Z,958.0725
2023-05-19T05:05:28.208Z,958.0796
2023-05-19T05:06:29.763Z,958.0983
2023-05-19T05:08:31.015Z,958.0954
2023-05-19T05:09:33.531Z,958.0956
2023-05-19T05:10:35.705Z,958.0862
2023-05-19T05:11:35.804Z,958.0870
2023-05-19T05:12:37.412Z,958.0896
2023-05-19T05:13:39.098Z,958.1004
2023-05-19T05:15:41.823Z,958.0684
2023-05-19T05:16:43.625Z,958.0458
2023-05-19T05:17:45.492Z,958.0565
2023-05-19T05:18:47.279Z,958.0508
2023-05-19T05:19:48.618Z,958.0650
2023-05-19T05:20:49.718Z,958.0508
2023-05-19T05:21:52.341Z,958.0625
2023-05-19T05:26:57.352Z,958.0513
2023-05-19T05:27:58.996Z,958.0471
2023-05-19T05:28:59.912Z,958.0305
2023-05-19T05:32:03.529Z,958.0262
2023-05-19T05:33:04.576Z,958.0300
2023-05-19T05:34:05.392Z,958.0084
2023-05-19T05:35:06.614Z,958.0200
2023-05-19T05:36:08.393Z,958.0112
2023-05-19T05:37:08.891Z,957.9941
2023-05-19T05:38:11.336Z,957.9966
2023-05-19T05:39:12.827Z,958.0042
2023-05-19T05:40:14.754Z,958.0080
2023-05-19T05:41:14.875Z,958.0064
2023-05-19T05:42:17.237Z,958.0054
2023-05-19T05:43:16.935Z,958.0231
2023-05-19T05:44:17.706Z,958.0038
2023-05-19T05:46:20.321Z,958.0212
2023-05-19T05:48:21.814Z,958.0454
2023-05-19T05:49:24.333Z,958.0444
2023-05-19T05:50:24.543Z,958.0491
2023-05-19T05:53:26.442Z,958.0370
2023-05-19T05:55:28.152Z,958.0483
2023-05-19T05:56:29.569Z,958.0179
2023-05-19T05:57:29.716Z,958.0092
2023-05-19T05:58:31.460Z,958.0467
2023-05-19T05:59:33.076Z,958.0554
2023-05-19T06:00:34.846Z,958.0546
2023-05-19T06:01:35.702Z,958.0696
2023-05-19T06:02:37.523Z,958.0788
2023-05-19T06:03:37.576Z,958.0511
2023-05-19T06:04:39.677Z,958.0371
2023-05-19T06:05:42.075Z,958.0471
2023-05-19T06:09:59.969Z,958.0912
2023-05-19T06:11:16.974Z,958.0621
2023-05-19T06:12:18.033Z,958.0717
2023-05-19T06:13:18.240Z,958.0635
2023-05-19T06:14:20.725Z,958.0463
2023-05-19T06:15:22.112Z,958.0300
2023-05-19T06:16:23.471Z,958.0329
2023-05-19T06:17:25.228Z,958.0591
2023-05-19T06:18:26.949Z,958.0604
2023-05-19T06:19:28.844Z,958.0742
2023-05-19T06:20:29.726Z,958.0715
2023-05-19T06:21:31.420Z,958.0961
2023-05-19T06:23:32.201Z,958.0754
2023-05-19T06:24:34.373Z,958.0621
2023-05-19T06:25:34.850Z,958.0457
2023-05-19T06:26:35.222Z,958.0408
2023-05-19T06:27:37.848Z,958.0413
2023-05-19T06:28:38.488Z,958.0365
2023-05-19T06:29:39.934Z,958.0587
2023-05-19T06:30:42.858Z,958.0368
2023-05-19T06:31:44.803Z,958.0346
2023-05-19T06:37:51.846Z,958.1362
2023-05-19T06:38:53.473Z,958.1362
2023-05-19T06:39:54.403Z,958.1346
2023-05-19T06:40:56.175Z,958.1359
2023-05-19T06:41:58.494Z,958.1154
2023-05-19T06:43:00.534Z,958.1279
2023-05-19T06:44:02.708Z,958.1166
2023-05-19T06:45:03.777Z,958.1166
2023-05-19T06:46:05.766Z,958.1196
2023-05-19T06:47:07.652Z,958.1284
2023-05-19T06:48:07.606Z,958.1296
2023-05-19T06:49:09.069Z,958.1442
2023-05-19T06:50:10.680Z,958.1704
2023-05-19T06:51:12.816Z,958.2015
2023-05-19T06:52:14.262Z,958.2079
2023-05-19T06:53:15.245Z,958.2092
2023-05-19T06:54:16.511Z,958.2059
2023-05-19T06:55:17.634Z,958.2050
2023-05-19T06:56:18.659Z,958.1954
2023-05-19T06:57:32.869Z,958.1900
2023-05-19T06:58:50.657Z,0.0000
2023-05-19T06:59:51.327Z,0.0000
2023-05-19T07:00:52.117Z,0.0000
2023-05-19T07:01:52.487Z,0.0000
2023-05-19T07:02:53.239Z,0.0000
2023-05-19T07:12:57.818Z,0.0000
2023-05-19T07:15:59.369Z,0.0000
2023-05-19T07:21:02.352Z,0.0000
2023-05-19T07:23:02.617Z,0.0000
2023-05-19T07:24:04.031Z,0.0000
2023-05-19T07:25:04.752Z,0.0000
2023-05-19T07:26:05.261Z,0.0000
2023-05-19T07:29:12.357Z,0.0000
2023-05-19T07:31:06.680Z,0.0000
2023-05-19T07:32:07.579Z,0.0000
2023-05-19T07:33:08.429Z,0.0000
2023-05-19T07:34:08.814Z,0.0000
2023-05-19T07:35:09.554Z,0.0000
2023-05-19T07:36:09.622Z,0.0000
2023-05-19T07:37:10.065Z,0.0000
2023-05-19T07:38:10.924Z,0.0000
2023-05-19T07:39:11.820Z,0.0000
2023-05-19T07:40:12.789Z,0.0000
2023-05-19T07:41:13.680Z,0.0000
2023-05-19T07:42:14.391Z,0.0000
2023-05-19T07:43:15.328Z,0.0000
2023-05-19T07:44:16.203Z,0.0000
2023-05-19T07:45:16.630Z,0.0000
2023-05-19T07:52:20.055Z,0.0000
2023-05-19T07:53:20.853Z,0.0000
2023-05-19T07:55:21.905Z,0.0000
2023-05-19T08:00:23.037Z,0.0000
2023-05-19T08:01:24.019Z,0.0000
2023-05-19T08:02:24.878Z,0.0000
2023-05-19T08:03:25.661Z,0.0000
2023-05-19T08:04:25.750Z,0.0000
2023-05-19T08:05:27.329Z,0.0000
2023-05-19T08:09:29.206Z,0.0000
2023-05-19T08:10:29.561Z,0.0000
2023-05-19T08:11:30.457Z,0.0000
2023-05-19T08:16:31.794Z,0.0000
2023-05-19T08:17:32.457Z,0.0000
2023-05-19T08:18:33.081Z,0.0000
2023-05-19T08:19:33.598Z,0.0000
2023-05-19T08:20:34.305Z,0.0000
2023-05-19T08:26:37.763Z,0.0000
2023-05-19T08:27:36.536Z,0.0000
2023-05-19T08:28:37.372Z,0.0000
2023-05-19T08:29:38.283Z,0.0000
2023-05-19T08:30:38.842Z,0.0000
2023-05-19T08:31:39.830Z,0.0000
2023-05-19T08:32:40.765Z,0.0000
2023-05-19T08:33:41.033Z,0.0000
2023-05-19T08:34:42.038Z,0.0000
2023-05-19T08:36:42.945Z,0.0000
2023-05-19T08:37:44.507Z,0.0000
2023-05-19T08:42:45.537Z,0.0000
2023-05-19T08:43:45.611Z,0.0000
2023-05-19T08:45:01.185Z,0.0000
2023-05-19T08:56:28.579Z,957.9208
2023-05-19T08:57:30.019Z,957.9192
2023-05-19T08:58:30.557Z,957.9296
2023-05-19T09:01:33.183Z,957.9254
2023-05-19T09:03:34.276Z,957.8870
2023-05-19T09:04:34.890Z,957.9079
2023-05-19T09:05:36.693Z,957.9108
2023-05-19T09:06:38.065Z,957.9187
2023-05-19T09:07:40.111Z,957.9333
2023-05-19T09:08:40.828Z,957.9543
2023-05-19T09:09:41.575Z,957.9695
2023-05-19T09:10:42.551Z,957.9739
2023-05-19T09:11:42.991Z,957.9827
2023-05-19T09:12:45.049Z,957.9852
2023-05-19T09:13:46.193Z,957.9808
2023-05-19T09:14:48.029Z,957.9569
2023-05-19T09:15:48.389Z,957.9404
2023-05-19T09:16:49.519Z,957.9431
2023-05-19T09:17:50.576Z,957.9366
2023-05-19T09:18:50.987Z,957.9215
2023-05-19T09:19:52.949Z,957.9378
2023-05-19T09:20:53.200Z,957.9380
2023-05-19T09:21:55.246Z,957.9315
2023-05-19T09:22:55.245Z,957.9575
2023-05-19T09:23:56.616Z,957.9591
2023-05-19T09:24:56.597Z,957.9673
2023-05-19T09:25:58.162Z,957.9617
2023-05-19T09:27:00.031Z,957.9804
2023-05-19T09:28:00.335Z,957.9865
2023-05-19T09:30:01.038Z,957.9522
2023-05-19T09:31:03.307Z,957.9589
2023-05-19T09:32:03.424Z,957.9291
2023-05-19T09:33:05.762Z,957.9233
2023-05-19T09:34:05.654Z,957.9250
2023-05-19T09:35:06.075Z,957.9213
2023-05-19T09:36:06.791Z,957.9095
2023-05-19T09:37:08.483Z,957.8950
2023-05-19T09:38:09.947Z,957.8943
2023-05-19T09:39:10.518Z,957.8843
2023-05-19T09:40:13.031Z,957.9056
2023-05-19T09:41:11.775Z,957.9050
2023-05-19T09:42:13.988Z,957.9316
2023-05-19T09:43:15.971Z,957.9781
2023-05-19T09:44:17.480Z,957.9528
2023-05-19T09:45:18.194Z,957.9708
2023-05-19T09:46:20.002Z,957.9615
2023-05-19T09:47:22.099Z,957.9704
2023-05-19T09:48:22.820Z,957.9615
2023-05-19T09:49:24.293Z,957.9808
2023-05-19T09:50:25.329Z,957.9838
2023-05-19T09:51:26.202Z,957.9382
2023-05-19T09:52:27.503Z,957.9496
2023-05-19T09:53:29.607Z,957.9382
2023-05-19T09:54:31.330Z,957.9370
2023-05-19T09:56:32.640Z,957.9543
2023-05-19T09:57:34.502Z,957.9583
2023-05-19T09:58:36.715Z,957.9637
2023-05-19T09:59:37.689Z,957.9461
2023-05-19T10:00:38.560Z,957.9492
2023-05-19T10:01:40.832Z,957.9539
2023-05-19T10:02:41.296Z,957.9460
2023-05-19T10:03:41.728Z,957.9385
2023-05-19T10:04:42.472Z,957.9235
2023-05-19T10:05:42.762Z,957.8961
2023-05-19T10:06:43.597Z,957.9039
2023-05-19T10:07:45.232Z,957.8952
2023-05-19T10:08:47.357Z,957.9004
2023-05-19T10:09:48.043Z,957.8943
2023-05-19T10:10:48.655Z,957.9044
2023-05-19T10:11:49.219Z,957.8992
2023-05-19T10:12:50.188Z,957.8842
2023-05-19T10:13:51.010Z,957.8943
2023-05-19T10:15:58.229Z,957.8831
2023-05-19T10:16:53.029Z,957.8952
2023-05-19T10:17:54.022Z,957.9000
2023-05-19T10:18:54.540Z,957.9005
2023-05-19T10:19:54.765Z,957.9142
2023-05-19T10:20:55.470Z,957.9100
2023-05-19T10:21:55.680Z,957.9056
2023-05-19T10:22:56.252Z,957.9150
2023-05-19T10:24:58.165Z,957.9243
2023-05-19T10:25:59.275Z,957.9004
2023-05-19T10:27:00.465Z,957.9117
2023-05-19T10:28:02.467Z,957.9056
2023-05-19T10:29:02.722Z,957.8792
2023-05-19T10:30:03.838Z,957.8569
2023-05-19T10:31:05.406Z,957.8587
2023-05-19T10:32:06.192Z,957.8569
2023-05-19T10:33:07.606Z,957.8339
2023-05-19T10:34:08.550Z,957.8209
2023-05-19T10:35:09.791Z,957.8118
2023-05-19T10:36:10.757Z,957.8248
2023-05-19T10:37:10.962Z,957.8058
2023-05-19T10:38:11.543Z,957.8142
2023-05-19T10:39:13.462Z,957.7904
2023-05-19T10:40:13.703Z,957.8039
2023-05-19T10:41:14.820Z,957.8096
2023-05-19T10:42:15.650Z,957.7920
2023-05-19T10:43:17.094Z,957.7976
2023-05-19T10:44:17.329Z,957.7840
2023-05-19T10:45:19.127Z,957.7896
2023-05-19T10:46:20.591Z,957.7752
2023-05-19T10:47:21.227Z,957.7957
2023-05-19T10:48:21.571Z,957.7731
2023-05-19T10:49:22.294Z,957.7700
2023-05-19T10:50:22.607Z,957.7604
2023-05-19T10:51:23.467Z,957.7869
2023-05-19T10:52:23.857Z,957.7622
2023-05-19T10:53:24.745Z,957.7822
2023-05-19T10:54:25.444Z,957.7813
2023-05-19T10:55:26.044Z,957.7744
2023-05-19T10:56:28.333Z,957.7736
2023-05-19T10:57:28.879Z,957.7475
2023-05-19T10:58:31.061Z,957.7491
2023-05-19T10:59:32.151Z,957.7552
2023-05-19T11:00:34.328Z,957.7856
2023-05-19T11:01:34.966Z,957.8127
2023-05-19T11:02:35.370Z,957.8077
2023-05-19T11:03:36.961Z,957.8252
2023-05-19T11:04:37.275Z,957.8204
2023-05-19T11:05:37.920Z,957.8120
2023-05-19T11:06:37.978Z,957.7991
2023-05-19T11:07:38.404Z,957.7932
2023-05-19T11:08:39.109Z,957.7708
2023-05-19T11:09:40.686Z,957.7596
2023-05-19T11:10:42.323Z,957.7416
2023-05-19T11:11:44.408Z,957.7124
2023-05-19T11:12:45.548Z,957.7195
2023-05-19T11:13:46.310Z,957.7216
2023-05-19T11:14:46.344Z,957.7109
2023-05-19T11:15:47.241Z,957.7234
2023-05-19T11:17:47.614Z,957.6996
2023-05-19T11:18:47.737Z,957.6909
2023-05-19T11:19:48.256Z,957.6635
2023-05-19T11:20:49.049Z,957.6718
2023-05-19T11:21:49.567Z,957.6588
2023-05-19T11:22:49.854Z,957.6382
2023-05-19T11:23:50.182Z,957.6270
2023-05-19T11:24:50.909Z,957.6230
2023-05-19T11:25:52.645Z,957.6354
2023-05-19T11:26:53.270Z,957.6282
2023-05-19T11:27:55.216Z,957.6320
2023-05-19T11:28:55.600Z,957.6360
2023-05-19T11:29:55.914Z,957.6224
2023-05-19T11:30:56.548Z,957.6365
2023-05-19T11:31:57.000Z,957.6212
2023-05-19T11:32:57.701Z,957.6138
2023-05-19T11:33:59.208Z,957.6108
2023-05-19T11:34:59.223Z,957.6073
2023-05-19T11:36:01.310Z,957.5984
2023-05-19T11:37:02.882Z,957.5880
2023-05-19T11:38:03.657Z,957.5684
2023-05-19T11:39:05.102Z,957.5584
2023-05-19T11:40:06.797Z,957.5596
2023-05-19T11:41:08.034Z,957.5487
2023-05-19T11:42:09.419Z,957.5388
2023-05-19T11:43:10.050Z,957.5327
2023-05-19T11:44:11.021Z,957.5388
2023-05-19T11:45:11.766Z,957.5448
2023-05-19T11:46:13.293Z,957.4876
2023-05-19T11:47:14.613Z,957.5044
2023-05-19T11:48:16.540Z,957.4915
2023-05-19T11:49:17.813Z,957.4654
2023-05-19T11:50:19.013Z,957.4648
2023-05-19T11:51:19.180Z,957.4772
2023-05-19T11:52:19.571Z,957.4517
2023-05-19T11:53:20.770Z,957.4630
2023-05-19T11:54:22.759Z,957.4808
2023-05-19T11:55:23.648Z,957.4839
2023-05-19T11:56:24.083Z,957.4650
2023-05-19T11:57:26.094Z,957.4508
2023-05-19T11:58:26.883Z,957.4813
2023-05-19T11:59:27.540Z,957.4552
2023-05-19T12:00:28.852Z,957.4556
2023-05-19T12:01:29.584Z,957.4413
2023-05-19T12:02:30.019Z,957.4535
2023-05-19T12:03:30.740Z,957.4717
2023-05-19T12:04:31.325Z,957.4839
2023-05-19T12:05:36.654Z,957.4878
2023-05-19T12:09:05.147Z,957.5139
2023-05-19T12:10:05.997Z,957.4980
2023-05-19T12:11:07.533Z,957.4950
2023-05-19T12:12:07.798Z,957.4916
2023-05-19T12:13:09.405Z,957.4588
2023-05-19T12:14:11.098Z,957.4475
2023-05-19T12:15:13.177Z,957.4617
2023-05-19T12:16:14.738Z,957.4692
2023-05-19T12:17:14.930Z,957.4630
2023-05-19T12:18:14.936Z,957.4822
2023-05-19T12:19:15.652Z,957.4704
2023-05-19T12:20:16.491Z,957.4609
2023-05-19T12:21:17.135Z,957.4765
2023-05-19T12:22:17.816Z,957.4891
2023-05-19T12:23:18.223Z,957.4985
2023-05-19T12:24:19.169Z,957.4980
2023-05-19T12:25:20.089Z,957.4835
2023-05-19T12:26:20.413Z,957.4848
2023-05-19T12:27:20.754Z,957.4996
2023-05-19T12:28:20.738Z,957.4716
2023-05-19T12:29:21.595Z,957.4431
2023-05-19T12:30:21.978Z,957.4482
2023-05-19T12:31:23.261Z,957.4088
2023-05-19T12:32:24.962Z,957.3665
2023-05-19T12:33:26.444Z,957.3712
2023-05-19T12:34:27.252Z,957.3529
2023-05-19T12:35:29.076Z,957.3420
2023-05-19T12:36:30.574Z,957.3252
2023-05-19T12:37:31.618Z,957.3165
2023-05-19T12:38:32.584Z,957.3040
2023-05-19T12:39:33.562Z,957.3016
2023-05-19T12:40:35.087Z,957.2952
2023-05-19T12:41:35.462Z,957.2846
2023-05-19T12:42:35.633Z,957.2769
2023-05-19T12:43:36.647Z,957.2715
2023-05-19T12:45:39.571Z,957.2400
2023-05-19T12:46:40.224Z,957.2234
2023-05-19T12:47:41.910Z,957.2228
2023-05-19T12:48:42.364Z,957.2104
2023-05-19T12:49:43.779Z,957.1936
2023-05-19T12:50:44.523Z,957.1876
2023-05-19T12:51:46.724Z,957.1592
2023-05-19T12:52:46.921Z,957.1583
2023-05-19T12:53:48.670Z,957.1629
2023-05-19T12:54:49.861Z,957.1536
2023-05-19T12:55:50.840Z,957.1556
2023-05-19T12:56:51.860Z,957.1304
2023-05-19T12:57:52.077Z,957.1179
2023-05-19T12:58:52.113Z,957.1322
2023-05-19T12:59:54.587Z,957.1341
2023-05-19T13:01:55.149Z,957.1169
2023-05-19T13:02:55.492Z,957.0956
2023-05-19T13:03:56.144Z,957.0787
2023-05-19T13:04:57.313Z,957.0743
2023-05-19T13:05:59.112Z,957.0708
2023-05-19T13:06:59.590Z,957.0443
2023-05-19T13:08:01.322Z,957.0596
2023-05-19T13:09:02.838Z,957.0255
2023-05-19T13:10:04.236Z,957.0261
2023-05-19T13:11:04.945Z,957.0356
2023-05-19T13:12:06.273Z,957.0305
2023-05-19T13:13:06.500Z,957.0391
2023-05-19T13:16:11.332Z,957.0231
2023-05-19T13:17:11.722Z,957.0078
2023-05-19T13:18:12.350Z,957.0182
2023-05-19T13:19:24.285Z,957.0270
2023-05-19T13:20:43.446Z,957.0229
2023-05-19T13:21:44.537Z,957.0274
2023-05-19T13:22:45.823Z,957.0153
2023-05-19T13:23:47.564Z,957.0020
2023-05-19T13:24:47.878Z,956.9787
2023-05-19T13:25:49.382Z,956.9665
2023-05-19T13:26:50.238Z,956.9526
2023-05-19T13:27:51.754Z,956.9626
2023-05-19T13:28:51.905Z,956.9487
2023-05-19T13:29:53.184Z,956.9526
2023-05-19T13:30:54.253Z,956.9343
2023-05-19T13:31:55.222Z,956.9191
2023-05-19T13:32:56.815Z,956.8877
2023-05-19T13:33:57.389Z,956.8554
2023-05-19T13:34:58.174Z,956.8940
2023-05-19T13:35:59.305Z,956.8856
2023-05-19T13:37:00.054Z,956.8873
2023-05-19T13:38:01.300Z,956.8696
2023-05-19T13:39:02.495Z,956.8669
2023-05-19T13:40:02.819Z,956.8882
2023-05-19T13:41:03.060Z,956.8618
2023-05-19T13:42:03.921Z,956.8600
2023-05-19T13:43:05.264Z,956.8646
2023-05-19T13:44:05.537Z,956.8892
2023-05-19T13:45:07.752Z,956.8826
2023-05-19T13:46:08.859Z,956.8505
2023-05-19T13:47:10.434Z,956.8487
2023-05-19T13:48:11.094Z,956.8462
2023-05-19T13:49:12.125Z,956.8452
2023-05-19T13:50:12.945Z,956.8370
2023-05-19T13:51:13.483Z,956.8470
2023-05-19T13:52:14.261Z,956.8452
2023-05-19T13:54:14.476Z,956.8365
2023-05-19T13:55:16.129Z,956.8348
2023-05-19T13:56:17.086Z,956.8168
2023-05-19T13:57:17.618Z,956.8154
2023-05-19T13:58:18.078Z,956.8248
2023-05-19T13:59:18.398Z,956.8282
2023-05-19T14:00:20.138Z,956.8452
2023-05-19T14:01:21.508Z,956.8427
2023-05-19T14:02:22.484Z,956.8481
2023-05-19T14:03:22.798Z,956.8591
2023-05-19T14:04:24.941Z,956.8654
2023-05-19T14:05:25.154Z,956.8461
2023-05-19T14:06:26.950Z,956.8641
2023-05-19T14:07:27.947Z,956.8936
2023-05-19T14:08:28.589Z,956.8983
2023-05-19T14:09:29.954Z,956.8800
2023-05-19T14:10:31.192Z,956.8739
2023-05-19T14:11:32.532Z,956.8874
2023-05-19T14:12:43.674Z,956.8983
2023-05-19T14:14:04.438Z,956.8962
2023-05-19T14:15:05.125Z,956.8918
2023-05-19T14:16:05.611Z,956.8832
2023-05-19T14:17:06.266Z,956.8796
2023-05-19T14:18:07.447Z,956.8856
2023-05-19T14:19:07.407Z,956.8800
2023-05-19T14:20:07.524Z,956.8662
2023-05-19T14:21:07.826Z,956.8780
2023-05-19T14:22:09.725Z,956.8812
2023-05-19T14:23:11.090Z,956.8748
2023-05-19T14:25:12.743Z,956.8713
2023-05-19T14:26:12.914Z,956.8778
2023-05-19T14:27:14.358Z,956.8550
2023-05-19T14:29:14.494Z,956.8582
2023-05-19T14:30:14.909Z,956.8526
2023-05-19T14:31:16.781Z,956.8448
2023-05-19T14:32:17.490Z,956.8421
2023-05-19T14:33:19.040Z,956.8539
2023-05-19T14:34:20.123Z,956.8522
2023-05-19T14:35:20.548Z,956.8440
2023-05-19T14:36:21.140Z,956.8265
2023-05-19T14:37:23.161Z,956.8152
2023-05-19T14:38:26.047Z,956.7717
2023-05-19T14:39:25.561Z,956.7852
2023-05-19T14:40:25.564Z,956.7974
2023-05-19T14:41:25.655Z,956.7883
2023-05-19T14:42:26.699Z,956.7969
2023-05-19T14:43:27.764Z,956.7757
2023-05-19T14:44:29.210Z,956.7892
2023-05-19T14:45:29.381Z,956.8052
2023-05-19T14:46:29.831Z,956.7930
2023-05-19T14:47:31.140Z,956.8004
2023-05-19T14:48:31.763Z,956.7943
2023-05-19T14:49:31.827Z,956.7869
2023-05-19T14:50:32.223Z,956.7852
2023-05-19T14:51:32.690Z,956.7696
2023-05-19T14:52:33.217Z,956.7713
2023-05-19T14:53:34.119Z,956.7766
2023-05-19T14:54:34.789Z,956.7913
2023-05-19T14:55:36.290Z,956.8148